sensor_id;sensor_type;location;lat;lon;timestamp;P1;durP1;ratioP1;P2;durP2;ratioP2
42364;SDS011;28498;54.400;18.566;2023-07-31T00:00:15;12.27;;;5.55;;
42364;SDS011;28498;54.400;18.566;2023-07-31T00:02:42;12.90;;;5.63;;
42364;SDS011;28498;54.400;18.566;2023-07-31T00:05:09;13.32;;;6.07;;
42364;SDS011;28498;54.400;18.566;2023-07-31T00:07:36;8.60;;;5.25;;
42364;SDS011;28498;54.400;18.566;2023-07-31T00:10:03;8.85;;;5.88;;
42364;SDS011;28498;54.400;18.566;2023-07-31T00:12:31;10.57;;;5.43;;
42364;SDS011;28498;54.400;18.566;2023-07-31T00:14:58;22.40;;;8.10;;
42364;SDS011;28498;54.400;18.566;2023-07-31T00:17:25;8.45;;;5.10;;
42364;SDS011;28498;54.400;18.566;2023-07-31T00:19:52;7.68;;;4.53;;
42364;SDS011;28498;54.400;18.566;2023-07-31T00:22:19;8.98;;;4.57;;
42364;SDS011;28498;54.400;18.566;2023-07-31T00:24:46;14.02;;;5.03;;
42364;SDS011;28498;54.400;18.566;2023-07-31T00:27:13;8.07;;;5.43;;
42364;SDS011;28498;54.400;18.566;2023-07-31T00:29:40;8.85;;;4.82;;
42364;SDS011;28498;54.400;18.566;2023-07-31T00:32:07;6.47;;;3.97;;
42364;SDS011;28498;54.400;18.566;2023-07-31T00:34:34;8.48;;;4.35;;
42364;SDS011;28498;54.400;18.566;2023-07-31T00:37:01;7.30;;;4.57;;
42364;SDS011;28498;54.400;18.566;2023-07-31T00:39:29;8.07;;;4.35;;
42364;SDS011;28498;54.400;18.566;2023-07-31T00:41:57;10.23;;;4.63;;
42364;SDS011;28498;54.400;18.566;2023-07-31T00:44:24;9.57;;;4.55;;
42364;SDS011;28498;54.400;18.566;2023-07-31T00:46:51;10.40;;;5.28;;
42364;SDS011;28498;54.400;18.566;2023-07-31T00:49:20;8.85;;;4.65;;
42364;SDS011;28498;54.400;18.566;2023-07-31T00:51:48;7.32;;;5.03;;
42364;SDS011;28498;54.400;18.566;2023-07-31T00:54:15;10.73;;;5.03;;
42364;SDS011;28498;54.400;18.566;2023-07-31T00:56:44;9.05;;;4.95;;
42364;SDS011;28498;54.400;18.566;2023-07-31T00:59:12;9.18;;;4.90;;
42364;SDS011;28498;54.400;18.566;2023-07-31T01:01:39;12.15;;;5.55;;
42364;SDS011;28498;54.400;18.566;2023-07-31T01:04:07;8.20;;;4.55;;
42364;SDS011;28498;54.400;18.566;2023-07-31T01:06:36;11.43;;;4.72;;
42364;SDS011;28498;54.400;18.566;2023-07-31T01:09:15;9.68;;;4.90;;
42364;SDS011;28498;54.400;18.566;2023-07-31T01:12:03;12.85;;;5.45;;
42364;SDS011;28498;54.400;18.566;2023-07-31T01:14:33;16.25;;;5.45;;
42364;SDS011;28498;54.400;18.566;2023-07-31T01:17:00;8.77;;;4.53;;
42364;SDS011;28498;54.400;18.566;2023-07-31T01:19:27;7.32;;;4.75;;
42364;SDS011;28498;54.400;18.566;2023-07-31T01:25:05;12.23;;;5.55;;
42364;SDS011;28498;54.400;18.566;2023-07-31T01:27:48;11.00;;;4.43;;
42364;SDS011;28498;54.400;18.566;2023-07-31T01:30:22;8.52;;;4.53;;
42364;SDS011;28498;54.400;18.566;2023-07-31T01:32:54;7.03;;;4.45;;
42364;SDS011;28498;54.400;18.566;2023-07-31T01:35:22;8.55;;;5.03;;
42364;SDS011;28498;54.400;18.566;2023-07-31T01:37:52;10.95;;;5.60;;
42364;SDS011;28498;54.400;18.566;2023-07-31T01:40:20;7.75;;;4.82;;
42364;SDS011;28498;54.400;18.566;2023-07-31T01:42:47;6.85;;;4.28;;
42364;SDS011;28498;54.400;18.566;2023-07-31T01:45:14;8.48;;;4.30;;
42364;SDS011;28498;54.400;18.566;2023-07-31T01:47:41;7.60;;;4.50;;
42364;SDS011;28498;54.400;18.566;2023-07-31T01:50:08;6.45;;;4.30;;
42364;SDS011;28498;54.400;18.566;2023-07-31T01:52:36;5.75;;;3.67;;
42364;SDS011;28498;54.400;18.566;2023-07-31T01:55:03;10.50;;;4.75;;
42364;SDS011;28498;54.400;18.566;2023-07-31T01:57:30;7.63;;;3.92;;
42364;SDS011;28498;54.400;18.566;2023-07-31T01:59:57;8.15;;;3.95;;
42364;SDS011;28498;54.400;18.566;2023-07-31T02:02:24;6.47;;;4.05;;
42364;SDS011;28498;54.400;18.566;2023-07-31T02:04:51;8.32;;;4.15;;
42364;SDS011;28498;54.400;18.566;2023-07-31T02:07:18;9.70;;;4.10;;
42364;SDS011;28498;54.400;18.566;2023-07-31T02:09:45;8.30;;;4.75;;
42364;SDS011;28498;54.400;18.566;2023-07-31T02:12:14;7.32;;;4.10;;
42364;SDS011;28498;54.400;18.566;2023-07-31T02:14:41;7.05;;;3.80;;
42364;SDS011;28498;54.400;18.566;2023-07-31T02:17:08;8.07;;;4.03;;
42364;SDS011;28498;54.400;18.566;2023-07-31T02:19:35;8.18;;;4.18;;
42364;SDS011;28498;54.400;18.566;2023-07-31T02:22:02;7.85;;;4.35;;
42364;SDS011;28498;54.400;18.566;2023-07-31T02:24:29;9.90;;;4.13;;
42364;SDS011;28498;54.400;18.566;2023-07-31T02:26:58;7.30;;;4.05;;
42364;SDS011;28498;54.400;18.566;2023-07-31T02:29:25;5.45;;;3.47;;
42364;SDS011;28498;54.400;18.566;2023-07-31T02:31:52;10.65;;;4.82;;
42364;SDS011;28498;54.400;18.566;2023-07-31T02:34:19;8.93;;;4.20;;
42364;SDS011;28498;54.400;18.566;2023-07-31T02:36:46;12.07;;;4.93;;
42364;SDS011;28498;54.400;18.566;2023-07-31T02:39:13;8.82;;;4.60;;
42364;SDS011;28498;54.400;18.566;2023-07-31T02:41:40;8.75;;;4.60;;
42364;SDS011;28498;54.400;18.566;2023-07-31T02:44:07;10.07;;;4.13;;
42364;SDS011;28498;54.400;18.566;2023-07-31T02:46:34;10.15;;;5.10;;
42364;SDS011;28498;54.400;18.566;2023-07-31T02:49:01;6.13;;;4.35;;
42364;SDS011;28498;54.400;18.566;2023-07-31T02:51:28;8.93;;;4.10;;
42364;SDS011;28498;54.400;18.566;2023-07-31T02:53:55;7.72;;;4.38;;
42364;SDS011;28498;54.400;18.566;2023-07-31T02:56:22;9.38;;;4.05;;
42364;SDS011;28498;54.400;18.566;2023-07-31T02:58:49;9.30;;;4.30;;
42364;SDS011;28498;54.400;18.566;2023-07-31T03:01:16;12.20;;;4.03;;
42364;SDS011;28498;54.400;18.566;2023-07-31T03:03:43;7.97;;;4.28;;
42364;SDS011;28498;54.400;18.566;2023-07-31T03:06:10;6.82;;;4.05;;
42364;SDS011;28498;54.400;18.566;2023-07-31T03:08:37;8.20;;;4.07;;
42364;SDS011;28498;54.400;18.566;2023-07-31T03:11:04;10.43;;;4.15;;
42364;SDS011;28498;54.400;18.566;2023-07-31T03:13:31;11.23;;;4.10;;
42364;SDS011;28498;54.400;18.566;2023-07-31T03:15:58;9.13;;;4.32;;
42364;SDS011;28498;54.400;18.566;2023-07-31T03:18:26;8.05;;;3.90;;
42364;SDS011;28498;54.400;18.566;2023-07-31T03:20:53;8.07;;;4.80;;
42364;SDS011;28498;54.400;18.566;2023-07-31T03:23:20;11.63;;;4.55;;
42364;SDS011;28498;54.400;18.566;2023-07-31T03:25:56;12.50;;;4.57;;
42364;SDS011;28498;54.400;18.566;2023-07-31T03:28:24;11.43;;;4.70;;
42364;SDS011;28498;54.400;18.566;2023-07-31T03:30:51;10.10;;;4.60;;
42364;SDS011;28498;54.400;18.566;2023-07-31T03:33:19;8.73;;;4.25;;
42364;SDS011;28498;54.400;18.566;2023-07-31T03:35:46;8.57;;;4.07;;
42364;SDS011;28498;54.400;18.566;2023-07-31T03:38:13;8.77;;;4.15;;
42364;SDS011;28498;54.400;18.566;2023-07-31T03:40:40;11.95;;;5.20;;
42364;SDS011;28498;54.400;18.566;2023-07-31T03:43:07;8.07;;;4.20;;
42364;SDS011;28498;54.400;18.566;2023-07-31T03:45:34;9.27;;;4.15;;
42364;SDS011;28498;54.400;18.566;2023-07-31T03:48:02;7.47;;;5.22;;
42364;SDS011;28498;54.400;18.566;2023-07-31T03:50:30;11.88;;;5.40;;
42364;SDS011;28498;54.400;18.566;2023-07-31T03:52:57;9.25;;;4.00;;
42364;SDS011;28498;54.400;18.566;2023-07-31T03:55:24;7.85;;;3.47;;
42364;SDS011;28498;54.400;18.566;2023-07-31T03:57:51;10.52;;;3.95;;
42364;SDS011;28498;54.400;18.566;2023-07-31T04:00:18;6.50;;;3.80;;
42364;SDS011;28498;54.400;18.566;2023-07-31T04:02:45;14.00;;;4.50;;
42364;SDS011;28498;54.400;18.566;2023-07-31T04:05:12;9.10;;;4.07;;
42364;SDS011;28498;54.400;18.566;2023-07-31T04:07:39;6.85;;;4.00;;
42364;SDS011;28498;54.400;18.566;2023-07-31T04:10:06;8.15;;;3.95;;
42364;SDS011;28498;54.400;18.566;2023-07-31T04:12:38;7.45;;;4.10;;
42364;SDS011;28498;54.400;18.566;2023-07-31T04:15:05;6.60;;;3.72;;
42364;SDS011;28498;54.400;18.566;2023-07-31T04:17:32;7.80;;;4.05;;
42364;SDS011;28498;54.400;18.566;2023-07-31T04:19:59;7.10;;;3.60;;
42364;SDS011;28498;54.400;18.566;2023-07-31T04:22:27;12.00;;;3.63;;
42364;SDS011;28498;54.400;18.566;2023-07-31T04:24:54;4.07;;;2.40;;
42364;SDS011;28498;54.400;18.566;2023-07-31T04:27:21;4.45;;;2.40;;
42364;SDS011;28498;54.400;18.566;2023-07-31T04:29:48;6.43;;;2.22;;
42364;SDS011;28498;54.400;18.566;2023-07-31T04:32:15;7.43;;;2.25;;
42364;SDS011;28498;54.400;18.566;2023-07-31T04:34:43;5.18;;;2.45;;
42364;SDS011;28498;54.400;18.566;2023-07-31T04:37:10;4.25;;;2.30;;
42364;SDS011;28498;54.400;18.566;2023-07-31T04:39:37;7.43;;;2.30;;
42364;SDS011;28498;54.400;18.566;2023-07-31T04:42:04;6.07;;;2.80;;
42364;SDS011;28498;54.400;18.566;2023-07-31T04:44:31;8.10;;;2.72;;
42364;SDS011;28498;54.400;18.566;2023-07-31T04:46:58;6.40;;;2.47;;
42364;SDS011;28498;54.400;18.566;2023-07-31T04:49:25;5.82;;;2.67;;
42364;SDS011;28498;54.400;18.566;2023-07-31T04:51:52;9.05;;;2.90;;
42364;SDS011;28498;54.400;18.566;2023-07-31T04:54:19;7.28;;;2.88;;
42364;SDS011;28498;54.400;18.566;2023-07-31T04:56:46;11.02;;;2.58;;
42364;SDS011;28498;54.400;18.566;2023-07-31T04:59:13;5.90;;;2.65;;
42364;SDS011;28498;54.400;18.566;2023-07-31T05:01:40;11.52;;;3.28;;
42364;SDS011;28498;54.400;18.566;2023-07-31T05:04:08;6.57;;;3.08;;
42364;SDS011;28498;54.400;18.566;2023-07-31T05:06:35;4.97;;;2.80;;
42364;SDS011;28498;54.400;18.566;2023-07-31T05:09:02;4.57;;;2.33;;
42364;SDS011;28498;54.400;18.566;2023-07-31T05:11:29;5.65;;;2.05;;
42364;SDS011;28498;54.400;18.566;2023-07-31T05:13:56;6.40;;;2.17;;
42364;SDS011;28498;54.400;18.566;2023-07-31T05:16:23;6.47;;;2.50;;
42364;SDS011;28498;54.400;18.566;2023-07-31T05:18:50;7.75;;;2.33;;
42364;SDS011;28498;54.400;18.566;2023-07-31T05:21:17;6.90;;;2.72;;
42364;SDS011;28498;54.400;18.566;2023-07-31T05:23:44;3.05;;;2.00;;
42364;SDS011;28498;54.400;18.566;2023-07-31T05:26:11;5.32;;;2.00;;
42364;SDS011;28498;54.400;18.566;2023-07-31T05:28:38;5.72;;;2.20;;
42364;SDS011;28498;54.400;18.566;2023-07-31T05:31:05;4.93;;;2.50;;
42364;SDS011;28498;54.400;18.566;2023-07-31T05:33:33;9.27;;;2.78;;
42364;SDS011;28498;54.400;18.566;2023-07-31T05:36:00;6.60;;;2.40;;
42364;SDS011;28498;54.400;18.566;2023-07-31T05:38:27;9.00;;;2.00;;
42364;SDS011;28498;54.400;18.566;2023-07-31T05:40:54;6.90;;;2.60;;
42364;SDS011;28498;54.400;18.566;2023-07-31T05:43:21;6.25;;;2.00;;
42364;SDS011;28498;54.400;18.566;2023-07-31T05:45:48;6.93;;;2.47;;
42364;SDS011;28498;54.400;18.566;2023-07-31T05:48:15;5.32;;;3.08;;
42364;SDS011;28498;54.400;18.566;2023-07-31T05:50:43;4.18;;;1.90;;
42364;SDS011;28498;54.400;18.566;2023-07-31T05:53:10;5.63;;;2.22;;
42364;SDS011;28498;54.400;18.566;2023-07-31T05:55:37;10.93;;;2.40;;
42364;SDS011;28498;54.400;18.566;2023-07-31T05:58:04;7.97;;;2.30;;
42364;SDS011;28498;54.400;18.566;2023-07-31T06:00:31;7.07;;;2.20;;
42364;SDS011;28498;54.400;18.566;2023-07-31T06:02:58;4.80;;;1.83;;
42364;SDS011;28498;54.400;18.566;2023-07-31T06:05:25;5.07;;;2.10;;
42364;SDS011;28498;54.400;18.566;2023-07-31T06:07:54;6.65;;;2.20;;
42364;SDS011;28498;54.400;18.566;2023-07-31T06:10:22;5.57;;;2.17;;
42364;SDS011;28498;54.400;18.566;2023-07-31T06:12:48;6.50;;;2.92;;
42364;SDS011;28498;54.400;18.566;2023-07-31T06:15:15;7.15;;;1.92;;
42364;SDS011;28498;54.400;18.566;2023-07-31T06:17:45;5.25;;;2.10;;
42364;SDS011;28498;54.400;18.566;2023-07-31T06:20:12;4.65;;;2.15;;
42364;SDS011;28498;54.400;18.566;2023-07-31T06:22:39;5.22;;;2.47;;
42364;SDS011;28498;54.400;18.566;2023-07-31T06:25:06;3.83;;;2.00;;
42364;SDS011;28498;54.400;18.566;2023-07-31T06:27:35;6.38;;;2.17;;
42364;SDS011;28498;54.400;18.566;2023-07-31T06:30:05;6.55;;;1.98;;
42364;SDS011;28498;54.400;18.566;2023-07-31T06:32:33;5.03;;;1.77;;
42364;SDS011;28498;54.400;18.566;2023-07-31T06:35:00;5.88;;;2.40;;
42364;SDS011;28498;54.400;18.566;2023-07-31T06:37:27;6.13;;;2.00;;
42364;SDS011;28498;54.400;18.566;2023-07-31T06:39:54;6.18;;;1.88;;
42364;SDS011;28498;54.400;18.566;2023-07-31T06:42:21;6.00;;;2.08;;
42364;SDS011;28498;54.400;18.566;2023-07-31T06:44:48;4.95;;;1.90;;
42364;SDS011;28498;54.400;18.566;2023-07-31T06:47:15;7.93;;;2.20;;
42364;SDS011;28498;54.400;18.566;2023-07-31T06:49:42;6.88;;;2.42;;
42364;SDS011;28498;54.400;18.566;2023-07-31T06:52:09;5.55;;;2.00;;
42364;SDS011;28498;54.400;18.566;2023-07-31T06:54:37;7.40;;;1.80;;
42364;SDS011;28498;54.400;18.566;2023-07-31T06:57:04;5.38;;;2.00;;
42364;SDS011;28498;54.400;18.566;2023-07-31T06:59:32;8.15;;;2.25;;
42364;SDS011;28498;54.400;18.566;2023-07-31T07:01:59;4.97;;;1.60;;
42364;SDS011;28498;54.400;18.566;2023-07-31T07:04:26;4.85;;;2.10;;
42364;SDS011;28498;54.400;18.566;2023-07-31T07:06:53;5.97;;;2.10;;
42364;SDS011;28498;54.400;18.566;2023-07-31T07:09:20;4.18;;;1.50;;
42364;SDS011;28498;54.400;18.566;2023-07-31T07:11:47;3.72;;;1.80;;
42364;SDS011;28498;54.400;18.566;2023-07-31T07:14:14;3.88;;;1.65;;
42364;SDS011;28498;54.400;18.566;2023-07-31T07:16:41;4.53;;;2.03;;
42364;SDS011;28498;54.400;18.566;2023-07-31T07:19:08;7.85;;;1.95;;
42364;SDS011;28498;54.400;18.566;2023-07-31T07:21:35;7.05;;;2.25;;
42364;SDS011;28498;54.400;18.566;2023-07-31T07:24:02;5.05;;;1.90;;
42364;SDS011;28498;54.400;18.566;2023-07-31T07:26:30;10.60;;;1.60;;
42364;SDS011;28498;54.400;18.566;2023-07-31T07:28:57;6.65;;;2.15;;
42364;SDS011;28498;54.400;18.566;2023-07-31T07:31:27;5.07;;;1.70;;
42364;SDS011;28498;54.400;18.566;2023-07-31T07:33:54;4.53;;;1.58;;
42364;SDS011;28498;54.400;18.566;2023-07-31T07:36:22;3.92;;;1.60;;
42364;SDS011;28498;54.400;18.566;2023-07-31T07:38:49;8.68;;;2.38;;
42364;SDS011;28498;54.400;18.566;2023-07-31T07:41:16;4.07;;;1.40;;
42364;SDS011;28498;54.400;18.566;2023-07-31T07:43:43;4.85;;;1.50;;
42364;SDS011;28498;54.400;18.566;2023-07-31T07:46:10;4.70;;;1.98;;
42364;SDS011;28498;54.400;18.566;2023-07-31T07:48:38;4.38;;;1.52;;
42364;SDS011;28498;54.400;18.566;2023-07-31T07:51:05;4.13;;;1.55;;
42364;SDS011;28498;54.400;18.566;2023-07-31T07:53:32;4.00;;;1.25;;
42364;SDS011;28498;54.400;18.566;2023-07-31T07:55:59;4.55;;;1.58;;
42364;SDS011;28498;54.400;18.566;2023-07-31T07:58:26;2.95;;;1.35;;
42364;SDS011;28498;54.400;18.566;2023-07-31T08:00:53;3.42;;;1.35;;
42364;SDS011;28498;54.400;18.566;2023-07-31T08:03:20;4.00;;;1.35;;
42364;SDS011;28498;54.400;18.566;2023-07-31T08:05:47;3.10;;;1.15;;
42364;SDS011;28498;54.400;18.566;2023-07-31T08:08:14;3.15;;;1.20;;
42364;SDS011;28498;54.400;18.566;2023-07-31T08:10:44;3.55;;;1.30;;
42364;SDS011;28498;54.400;18.566;2023-07-31T08:13:11;5.07;;;1.20;;
42364;SDS011;28498;54.400;18.566;2023-07-31T08:15:40;6.93;;;1.50;;
42364;SDS011;28498;54.400;18.566;2023-07-31T08:18:09;4.43;;;1.20;;
42364;SDS011;28498;54.400;18.566;2023-07-31T08:20:37;2.58;;;1.15;;
42364;SDS011;28498;54.400;18.566;2023-07-31T08:23:04;3.63;;;0.93;;
42364;SDS011;28498;54.400;18.566;2023-07-31T08:25:34;3.28;;;1.10;;
42364;SDS011;28498;54.400;18.566;2023-07-31T08:28:02;3.95;;;1.20;;
42364;SDS011;28498;54.400;18.566;2023-07-31T08:30:30;2.60;;;1.10;;
42364;SDS011;28498;54.400;18.566;2023-07-31T08:32:58;3.33;;;1.30;;
42364;SDS011;28498;54.400;18.566;2023-07-31T08:35:25;4.43;;;1.52;;
42364;SDS011;28498;54.400;18.566;2023-07-31T08:37:54;3.90;;;0.98;;
42364;SDS011;28498;54.400;18.566;2023-07-31T08:40:21;3.65;;;1.10;;
42364;SDS011;28498;54.400;18.566;2023-07-31T08:42:49;5.10;;;1.10;;
42364;SDS011;28498;54.400;18.566;2023-07-31T08:45:19;3.10;;;0.88;;
42364;SDS011;28498;54.400;18.566;2023-07-31T08:47:48;3.40;;;1.15;;
42364;SDS011;28498;54.400;18.566;2023-07-31T08:50:17;4.55;;;1.33;;
42364;SDS011;28498;54.400;18.566;2023-07-31T08:52:46;2.40;;;1.00;;
42364;SDS011;28498;54.400;18.566;2023-07-31T08:55:14;3.17;;;1.10;;
42364;SDS011;28498;54.400;18.566;2023-07-31T08:57:42;3.22;;;1.02;;
42364;SDS011;28498;54.400;18.566;2023-07-31T09:03:59;3.17;;;0.90;;
42364;SDS011;28498;54.400;18.566;2023-07-31T09:06:29;1.75;;;0.90;;
42364;SDS011;28498;54.400;18.566;2023-07-31T09:08:57;2.33;;;1.02;;
42364;SDS011;28498;54.400;18.566;2023-07-31T09:11:25;2.15;;;0.80;;
42364;SDS011;28498;54.400;18.566;2023-07-31T09:13:53;4.40;;;1.10;;
42364;SDS011;28498;54.400;18.566;2023-07-31T09:16:27;3.15;;;0.93;;
42364;SDS011;28498;54.400;18.566;2023-07-31T09:18:57;2.35;;;0.77;;
42364;SDS011;28498;54.400;18.566;2023-07-31T09:21:25;3.92;;;1.10;;
42364;SDS011;28498;54.400;18.566;2023-07-31T09:23:54;4.53;;;0.90;;
42364;SDS011;28498;54.400;18.566;2023-07-31T09:26:30;2.50;;;0.93;;
42364;SDS011;28498;54.400;18.566;2023-07-31T09:28:59;2.85;;;1.05;;
42364;SDS011;28498;54.400;18.566;2023-07-31T09:31:45;5.72;;;1.40;;
42364;SDS011;28498;54.400;18.566;2023-07-31T09:34:12;5.18;;;1.42;;
42364;SDS011;28498;54.400;18.566;2023-07-31T09:36:46;4.30;;;0.90;;
42364;SDS011;28498;54.400;18.566;2023-07-31T09:39:16;3.03;;;0.80;;
42364;SDS011;28498;54.400;18.566;2023-07-31T09:41:44;2.08;;;0.82;;
42364;SDS011;28498;54.400;18.566;2023-07-31T09:44:20;3.13;;;0.80;;
42364;SDS011;28498;54.400;18.566;2023-07-31T09:46:47;2.63;;;0.80;;
42364;SDS011;28498;54.400;18.566;2023-07-31T09:49:15;4.43;;;1.00;;
42364;SDS011;28498;54.400;18.566;2023-07-31T09:51:42;3.25;;;1.73;;
42364;SDS011;28498;54.400;18.566;2023-07-31T09:54:13;3.60;;;1.10;;
42364;SDS011;28498;54.400;18.566;2023-07-31T09:56:44;2.38;;;1.00;;
42364;SDS011;28498;54.400;18.566;2023-07-31T09:59:16;2.50;;;1.10;;
42364;SDS011;28498;54.400;18.566;2023-07-31T10:01:49;3.67;;;0.98;;
42364;SDS011;28498;54.400;18.566;2023-07-31T10:04:18;4.22;;;1.00;;
42364;SDS011;28498;54.400;18.566;2023-07-31T10:06:52;4.57;;;0.75;;
42364;SDS011;28498;54.400;18.566;2023-07-31T10:09:20;4.45;;;1.10;;
42364;SDS011;28498;54.400;18.566;2023-07-31T10:11:53;3.30;;;1.10;;
42364;SDS011;28498;54.400;18.566;2023-07-31T10:14:26;2.42;;;0.80;;
42364;SDS011;28498;54.400;18.566;2023-07-31T10:16:53;1.98;;;0.90;;
42364;SDS011;28498;54.400;18.566;2023-07-31T10:19:22;3.40;;;1.20;;
42364;SDS011;28498;54.400;18.566;2023-07-31T10:21:49;2.60;;;1.08;;
42364;SDS011;28498;54.400;18.566;2023-07-31T10:24:17;3.40;;;1.20;;
42364;SDS011;28498;54.400;18.566;2023-07-31T10:26:45;2.92;;;0.95;;
42364;SDS011;28498;54.400;18.566;2023-07-31T10:29:14;3.25;;;0.98;;
42364;SDS011;28498;54.400;18.566;2023-07-31T10:31:43;4.10;;;1.15;;
42364;SDS011;28498;54.400;18.566;2023-07-31T10:34:10;3.25;;;0.93;;
42364;SDS011;28498;54.400;18.566;2023-07-31T10:36:38;3.70;;;0.98;;
42364;SDS011;28498;54.400;18.566;2023-07-31T10:39:05;2.75;;;1.10;;
42364;SDS011;28498;54.400;18.566;2023-07-31T10:42:12;4.35;;;0.95;;
42364;SDS011;28498;54.400;18.566;2023-07-31T10:44:49;2.17;;;0.85;;
42364;SDS011;28498;54.400;18.566;2023-07-31T10:47:16;4.35;;;1.10;;
42364;SDS011;28498;54.400;18.566;2023-07-31T10:49:44;2.20;;;0.90;;
42364;SDS011;28498;54.400;18.566;2023-07-31T10:52:13;4.65;;;1.00;;
42364;SDS011;28498;54.400;18.566;2023-07-31T10:54:45;4.47;;;1.20;;
42364;SDS011;28498;54.400;18.566;2023-07-31T10:57:19;2.38;;;0.90;;
42364;SDS011;28498;54.400;18.566;2023-07-31T10:59:49;2.10;;;1.02;;
42364;SDS011;28498;54.400;18.566;2023-07-31T11:02:26;2.10;;;1.00;;
42364;SDS011;28498;54.400;18.566;2023-07-31T11:05:09;3.08;;;1.50;;
42364;SDS011;28498;54.400;18.566;2023-07-31T11:11:18;2.97;;;1.15;;
42364;SDS011;28498;54.400;18.566;2023-07-31T11:13:46;4.68;;;1.40;;
42364;SDS011;28498;54.400;18.566;2023-07-31T11:16:16;6.28;;;1.73;;
42364;SDS011;28498;54.400;18.566;2023-07-31T11:18:45;3.42;;;1.20;;
42364;SDS011;28498;54.400;18.566;2023-07-31T11:21:18;2.05;;;0.75;;
42364;SDS011;28498;54.400;18.566;2023-07-31T11:23:47;3.75;;;1.15;;
42364;SDS011;28498;54.400;18.566;2023-07-31T11:26:16;4.00;;;1.10;;
42364;SDS011;28498;54.400;18.566;2023-07-31T11:28:46;7.20;;;1.67;;
42364;SDS011;28498;54.400;18.566;2023-07-31T11:35:02;4.30;;;1.00;;
42364;SDS011;28498;54.400;18.566;2023-07-31T11:37:43;5.85;;;1.17;;
42364;SDS011;28498;54.400;18.566;2023-07-31T11:40:11;2.22;;;0.88;;
42364;SDS011;28498;54.400;18.566;2023-07-31T11:42:39;3.65;;;1.10;;
42364;SDS011;28498;54.400;18.566;2023-07-31T11:45:07;4.10;;;1.10;;
42364;SDS011;28498;54.400;18.566;2023-07-31T11:47:36;2.45;;;1.10;;
42364;SDS011;28498;54.400;18.566;2023-07-31T11:50:05;4.35;;;1.10;;
42364;SDS011;28498;54.400;18.566;2023-07-31T11:52:37;2.65;;;1.00;;
42364;SDS011;28498;54.400;18.566;2023-07-31T11:55:08;3.85;;;1.05;;
42364;SDS011;28498;54.400;18.566;2023-07-31T11:57:39;5.55;;;1.30;;
42364;SDS011;28498;54.400;18.566;2023-07-31T12:00:08;4.05;;;1.30;;
42364;SDS011;28498;54.400;18.566;2023-07-31T12:02:37;5.40;;;1.10;;
42364;SDS011;28498;54.400;18.566;2023-07-31T12:05:06;3.60;;;1.10;;
42364;SDS011;28498;54.400;18.566;2023-07-31T12:07:46;6.20;;;1.30;;
42364;SDS011;28498;54.400;18.566;2023-07-31T12:10:25;4.32;;;1.80;;
42364;SDS011;28498;54.400;18.566;2023-07-31T12:12:57;4.47;;;1.25;;
42364;SDS011;28498;54.400;18.566;2023-07-31T12:15:35;6.20;;;1.40;;
42364;SDS011;28498;54.400;18.566;2023-07-31T12:18:05;3.63;;;1.20;;
42364;SDS011;28498;54.400;18.566;2023-07-31T12:20:40;6.03;;;1.30;;
42364;SDS011;28498;54.400;18.566;2023-07-31T12:23:12;2.42;;;1.00;;
42364;SDS011;28498;54.400;18.566;2023-07-31T12:26:08;8.25;;;1.50;;
42364;SDS011;28498;54.400;18.566;2023-07-31T12:28:43;3.33;;;1.20;;
42364;SDS011;28498;54.400;18.566;2023-07-31T12:31:15;4.32;;;1.48;;
42364;SDS011;28498;54.400;18.566;2023-07-31T12:33:44;4.88;;;1.10;;
42364;SDS011;28498;54.400;18.566;2023-07-31T12:36:14;2.63;;;1.20;;
42364;SDS011;28498;54.400;18.566;2023-07-31T12:38:43;3.83;;;1.13;;
42364;SDS011;28498;54.400;18.566;2023-07-31T12:41:10;4.43;;;1.67;;
42364;SDS011;28498;54.400;18.566;2023-07-31T12:43:39;5.07;;;1.50;;
42364;SDS011;28498;54.400;18.566;2023-07-31T12:46:08;3.80;;;1.30;;
42364;SDS011;28498;54.400;18.566;2023-07-31T12:48:36;2.80;;;1.10;;
42364;SDS011;28498;54.400;18.566;2023-07-31T12:51:04;5.72;;;1.33;;
42364;SDS011;28498;54.400;18.566;2023-07-31T12:53:31;4.93;;;1.35;;
42364;SDS011;28498;54.400;18.566;2023-07-31T12:55:59;3.05;;;1.38;;
42364;SDS011;28498;54.400;18.566;2023-07-31T12:58:26;5.07;;;1.33;;
42364;SDS011;28498;54.400;18.566;2023-07-31T13:00:53;4.35;;;1.40;;
42364;SDS011;28498;54.400;18.566;2023-07-31T13:03:20;5.38;;;1.90;;
42364;SDS011;28498;54.400;18.566;2023-07-31T13:05:47;3.00;;;1.25;;
42364;SDS011;28498;54.400;18.566;2023-07-31T13:08:14;4.47;;;1.80;;
42364;SDS011;28498;54.400;18.566;2023-07-31T13:14:31;3.03;;;1.60;;
42364;SDS011;28498;54.400;18.566;2023-07-31T13:16:58;4.70;;;1.40;;
42364;SDS011;28498;54.400;18.566;2023-07-31T13:19:25;4.45;;;1.23;;
42364;SDS011;28498;54.400;18.566;2023-07-31T13:21:52;4.28;;;1.65;;
42364;SDS011;28498;54.400;18.566;2023-07-31T13:24:19;4.97;;;1.52;;
42364;SDS011;28498;54.400;18.566;2023-07-31T13:26:46;3.53;;;2.05;;
42364;SDS011;28498;54.400;18.566;2023-07-31T13:29:13;4.43;;;1.48;;
42364;SDS011;28498;54.400;18.566;2023-07-31T13:31:40;4.10;;;1.70;;
42364;SDS011;28498;54.400;18.566;2023-07-31T13:34:07;6.47;;;1.50;;
42364;SDS011;28498;54.400;18.566;2023-07-31T13:36:34;4.90;;;1.52;;
42364;SDS011;28498;54.400;18.566;2023-07-31T13:39:04;2.85;;;1.42;;
42364;SDS011;28498;54.400;18.566;2023-07-31T13:41:31;4.35;;;1.40;;
42364;SDS011;28498;54.400;18.566;2023-07-31T13:43:58;5.35;;;1.55;;
42364;SDS011;28498;54.400;18.566;2023-07-31T13:46:25;3.15;;;1.15;;
42364;SDS011;28498;54.400;18.566;2023-07-31T13:48:52;4.45;;;1.40;;
42364;SDS011;28498;54.400;18.566;2023-07-31T13:51:22;2.72;;;1.40;;
42364;SDS011;28498;54.400;18.566;2023-07-31T13:53:49;3.17;;;1.17;;
42364;SDS011;28498;54.400;18.566;2023-07-31T13:56:16;4.25;;;1.25;;
42364;SDS011;28498;54.400;18.566;2023-07-31T13:58:43;2.80;;;1.02;;
42364;SDS011;28498;54.400;18.566;2023-07-31T14:01:10;4.30;;;1.27;;
42364;SDS011;28498;54.400;18.566;2023-07-31T14:03:37;3.25;;;1.10;;
42364;SDS011;28498;54.400;18.566;2023-07-31T14:06:04;7.47;;;1.60;;
42364;SDS011;28498;54.400;18.566;2023-07-31T14:08:31;3.75;;;1.30;;
42364;SDS011;28498;54.400;18.566;2023-07-31T14:10:58;3.75;;;1.10;;
42364;SDS011;28498;54.400;18.566;2023-07-31T14:13:25;5.88;;;1.30;;
42364;SDS011;28498;54.400;18.566;2023-07-31T14:15:52;2.88;;;1.38;;
42364;SDS011;28498;54.400;18.566;2023-07-31T14:18:20;5.60;;;1.50;;
42364;SDS011;28498;54.400;18.566;2023-07-31T14:20:47;2.83;;;1.23;;
42364;SDS011;28498;54.400;18.566;2023-07-31T14:23:14;2.22;;;1.10;;
42364;SDS011;28498;54.400;18.566;2023-07-31T14:25:42;2.70;;;1.20;;
42364;SDS011;28498;54.400;18.566;2023-07-31T14:31:57;2.50;;;1.00;;
42364;SDS011;28498;54.400;18.566;2023-07-31T14:34:24;3.47;;;0.90;;
42364;SDS011;28498;54.400;18.566;2023-07-31T14:36:51;2.65;;;0.90;;
42364;SDS011;28498;54.400;18.566;2023-07-31T14:39:17;2.83;;;1.08;;
42364;SDS011;28498;54.400;18.566;2023-07-31T14:41:45;3.47;;;1.02;;
42364;SDS011;28498;54.400;18.566;2023-07-31T14:44:12;2.40;;;1.00;;
42364;SDS011;28498;54.400;18.566;2023-07-31T14:46:39;2.63;;;1.00;;
42364;SDS011;28498;54.400;18.566;2023-07-31T14:49:07;4.82;;;1.65;;
42364;SDS011;28498;54.400;18.566;2023-07-31T14:51:34;2.33;;;1.00;;
42364;SDS011;28498;54.400;18.566;2023-07-31T14:54:01;2.60;;;0.98;;
42364;SDS011;28498;54.400;18.566;2023-07-31T14:56:28;2.85;;;0.70;;
42364;SDS011;28498;54.400;18.566;2023-07-31T14:58:55;3.55;;;1.25;;
42364;SDS011;28498;54.400;18.566;2023-07-31T15:01:23;2.20;;;0.80;;